createdAt,value
2023-03-19T00:02:16.988Z,101125.86
2023-03-19T00:04:39.298Z,101127.55
2023-03-19T00:07:09.189Z,101126.05
2023-03-19T00:09:39.400Z,101133.11
2023-03-19T00:12:09.680Z,101133.11
2023-03-19T00:14:40.558Z,101122.28
2023-03-19T00:17:11.126Z,101122.28
2023-03-19T00:19:41.173Z,101144.69
2023-03-19T00:22:10.953Z,101144.69
2023-03-19T00:24:41.102Z,101131.72
2023-03-19T00:27:10.992Z,101131.72
2023-03-19T00:29:41.280Z,101140.16
2023-03-19T00:32:14.564Z,101139.30
2023-03-19T00:34:44.854Z,101136.34
2023-03-19T00:37:16.404Z,101135.41
2023-03-19T00:39:46.449Z,101137.41
2023-03-19T00:42:16.780Z,101141.48
2023-03-19T00:44:46.531Z,101147.34
2023-03-19T00:47:16.353Z,101147.13
2023-03-19T00:49:46.141Z,101144.73
2023-03-19T00:52:16.229Z,101142.05
2023-03-19T00:54:46.719Z,101149.08
2023-03-19T00:57:16.788Z,101145.05
2023-03-19T00:59:46.912Z,101141.48
2023-03-19T01:02:17.199Z,101141.48
2023-03-19T01:04:49.517Z,101154.12
2023-03-19T01:07:19.704Z,101132.73
2023-03-19T01:09:49.913Z,101146.68
2023-03-19T01:12:19.818Z,101146.68
2023-03-19T01:14:49.621Z,101146.94
2023-03-19T01:17:19.643Z,101143.90
2023-03-19T01:19:50.918Z,101145.31
2023-03-19T01:22:20.694Z,101142.84
2023-03-19T01:24:52.938Z,101139.81
2023-03-19T01:27:23.039Z,101153.28
2023-03-19T01:29:53.576Z,101144.58
2023-03-19T01:32:25.156Z,101140.45
2023-03-19T01:34:57.174Z,101140.33
2023-03-19T01:37:26.932Z,101140.33
2023-03-19T01:39:56.868Z,101146.59
2023-03-19T01:42:26.502Z,101146.69
2023-03-19T01:45:03.019Z,101140.83
2023-03-19T01:47:44.110Z,101140.83
2023-03-19T01:50:30.094Z,101143.53
2023-03-19T01:53:04.588Z,101137.64
2023-03-19T01:55:57.177Z,101132.88
2023-03-19T01:58:38.210Z,101136.43
2023-03-19T02:01:10.544Z,101134.38
2023-03-19T02:03:42.664Z,101142.05
2023-03-19T02:06:15.412Z,101131.65
2023-03-19T02:08:45.577Z,101140.92
2023-03-19T02:11:15.754Z,101137.25
2023-03-19T02:13:47.013Z,101135.69
2023-03-19T02:16:17.369Z,101136.34
2023-03-19T02:18:48.051Z,101136.34
2023-03-19T02:21:20.471Z,101137.37
2023-03-19T02:24:02.526Z,101138.97
2023-03-19T02:26:37.932Z,101134.34
2023-03-19T02:29:07.772Z,101141.45
2023-03-19T02:31:38.226Z,101138.61
2023-03-19T02:34:22.839Z,101138.95
2023-03-19T02:37:02.413Z,101138.61
2023-03-19T02:39:47.188Z,101138.61
2023-03-19T02:42:19.515Z,101135.75
2023-03-19T02:44:49.793Z,101137.89
2023-03-19T02:47:19.782Z,101131.48
2023-03-19T02:49:49.867Z,101132.94
2023-03-19T02:52:20.026Z,101141.95
2023-03-19T02:54:50.116Z,101139.25
2023-03-19T02:57:20.767Z,101155.14
2023-03-19T02:59:50.813Z,101155.14
2023-03-19T03:02:21.851Z,101156.88
2023-03-19T03:04:52.161Z,101151.14
2023-03-19T03:07:22.241Z,101154.95
2023-03-19T03:09:52.530Z,101150.83
2023-03-19T03:12:22.564Z,101150.12
2023-03-19T03:14:52.631Z,101153.88
2023-03-19T03:17:22.119Z,101156.91
2023-03-19T03:19:52.169Z,101160.61
2023-03-19T03:22:22.023Z,101158.00
2023-03-19T03:24:51.797Z,101159.72
2023-03-19T03:27:21.953Z,101159.72
2023-03-19T03:29:52.145Z,101156.92
2023-03-19T03:32:22.382Z,101161.76
2023-03-19T03:34:52.483Z,101164.03
2023-03-19T03:37:22.661Z,101164.27
2023-03-19T03:39:53.376Z,101163.40
2023-03-19T03:42:23.194Z,101166.34
2023-03-19T03:44:53.627Z,101166.34
2023-03-19T03:47:23.452Z,101162.92
2023-03-19T03:49:53.832Z,101168.37
2023-03-19T03:52:23.922Z,101157.77
2023-03-19T03:54:54.048Z,101158.00
2023-03-19T03:57:23.818Z,101162.37
2023-03-19T03:59:54.277Z,101165.68
2023-03-19T04:02:25.121Z,101165.16
2023-03-19T04:04:56.094Z,101168.52
2023-03-19T04:07:25.841Z,101171.02
2023-03-19T04:09:59.710Z,101167.79
2023-03-19T04:12:29.766Z,101174.22
2023-03-19T04:14:59.600Z,101166.34
2023-03-19T04:17:29.643Z,101169.95
2023-03-19T04:19:59.408Z,101184.42
2023-03-19T04:22:29.360Z,101176.15
2023-03-19T04:24:59.151Z,101173.63
2023-03-19T04:27:29.697Z,101178.14
2023-03-19T04:29:59.840Z,101183.28
2023-03-19T04:32:30.455Z,101178.47
2023-03-19T04:35:00.693Z,101181.09
2023-03-19T04:37:31.331Z,101186.97
2023-03-19T04:40:01.480Z,101189.86
2023-03-19T04:42:33.130Z,101193.37
2023-03-19T04:45:08.661Z,101194.05
2023-03-19T04:47:39.000Z,101199.50
2023-03-19T04:50:10.388Z,101197.34
2023-03-19T04:52:40.314Z,101200.88
2023-03-19T04:55:10.299Z,101200.88
2023-03-19T04:57:58.128Z,101201.70
2023-03-19T05:00:30.670Z,101194.73
2023-03-19T05:03:00.884Z,101197.52
2023-03-19T05:05:32.489Z,101200.88
2023-03-19T05:08:03.507Z,101214.36
2023-03-19T05:10:34.609Z,101214.36
2023-03-19T05:13:05.463Z,101204.75
2023-03-19T05:15:35.785Z,101211.52
2023-03-19T05:18:08.642Z,101215.70
2023-03-19T05:20:46.459Z,101215.00
2023-03-19T05:23:21.250Z,101219.15
2023-03-19T05:26:08.501Z,101224.61
2023-03-19T05:28:55.884Z,101220.45
2023-03-19T05:31:27.923Z,101224.17
2023-03-19T05:33:58.317Z,101222.78
2023-03-19T05:36:29.095Z,101222.98
2023-03-19T05:39:06.456Z,101222.98
2023-03-19T05:41:37.988Z,101226.02
2023-03-19T05:44:09.086Z,101229.14
2023-03-19T05:46:41.608Z,101226.73
2023-03-19T05:49:12.251Z,101229.83
2023-03-19T05:51:42.143Z,101231.29
2023-03-19T05:54:14.369Z,101216.41
2023-03-19T05:56:45.909Z,101216.41
2023-03-19T05:59:19.852Z,101234.56
2023-03-19T06:01:51.551Z,101240.41
2023-03-19T06:04:21.438Z,101246.20
2023-03-19T06:06:51.459Z,101247.30
2023-03-19T06:09:21.624Z,101250.83
2023-03-19T06:11:53.180Z,101250.43
2023-03-19T06:14:30.179Z,101259.33
2023-03-19T06:17:01.674Z,101261.58
2023-03-19T06:19:31.532Z,101268.48
2023-03-19T06:22:01.652Z,101268.48
2023-03-19T06:24:31.309Z,101279.19
2023-03-19T06:27:01.791Z,101286.25
2023-03-19T06:29:31.823Z,101286.53
2023-03-19T06:32:03.676Z,101281.88
2023-03-19T06:34:41.598Z,101276.78
2023-03-19T06:37:11.889Z,101282.44
2023-03-19T06:39:41.761Z,101286.98
2023-03-19T06:42:12.155Z,101284.84
2023-03-19T06:44:42.009Z,101296.67
2023-03-19T06:47:12.378Z,101293.60
2023-03-19T06:49:42.854Z,101292.51
2023-03-19T06:52:13.810Z,101295.83
2023-03-19T06:54:43.280Z,101298.54
2023-03-19T06:57:13.140Z,101299.97
2023-03-19T06:59:42.954Z,101307.25
2023-03-19T07:02:14.368Z,101299.97
2023-03-19T07:04:44.155Z,101306.05
2023-03-19T07:07:14.043Z,101306.34
2023-03-19T07:09:43.806Z,101317.88
2023-03-19T07:12:15.704Z,101316.84
2023-03-19T07:14:45.864Z,101322.75
2023-03-19T07:17:15.994Z,101322.39
2023-03-19T07:19:46.074Z,101323.72
2023-03-19T07:22:16.042Z,101325.92
2023-03-19T07:24:46.109Z,101325.92
2023-03-19T07:27:16.438Z,101328.81
2023-03-19T07:29:45.951Z,101338.37
2023-03-19T07:32:16.541Z,101335.34
2023-03-19T07:34:46.344Z,101340.28
2023-03-19T07:37:16.586Z,101335.48
2023-03-19T07:39:46.593Z,101341.46
2023-03-19T07:42:17.210Z,101351.59
2023-03-19T07:44:47.013Z,101351.00
2023-03-19T07:47:28.563Z,101350.14
2023-03-19T07:49:48.961Z,101348.56
2023-03-19T07:52:19.152Z,101345.67
2023-03-19T07:54:50.069Z,101346.30
2023-03-19T07:57:20.895Z,101345.45
2023-03-19T07:59:51.002Z,101350.08
2023-03-19T08:02:23.048Z,101350.08
2023-03-19T08:04:52.399Z,101353.39
2023-03-19T08:07:22.422Z,101352.70
2023-03-19T08:09:52.331Z,101355.23
2023-03-19T08:12:21.767Z,101350.02
2023-03-19T08:14:51.711Z,101360.88
2023-03-19T08:17:22.008Z,101362.03
2023-03-19T08:19:51.796Z,101368.27
2023-03-19T08:22:21.416Z,101370.05
2023-03-19T08:24:51.190Z,101371.19
2023-03-19T08:27:21.347Z,101369.47
2023-03-19T08:29:51.176Z,101370.41
2023-03-19T08:32:20.739Z,101374.84
2023-03-19T08:34:50.578Z,101378.38
2023-03-19T08:37:20.344Z,101375.33
2023-03-19T08:39:52.315Z,101375.44
2023-03-19T08:42:23.026Z,101385.49
2023-03-19T08:44:53.310Z,101385.31
2023-03-19T08:47:25.048Z,101382.05
2023-03-19T08:49:54.904Z,101383.81
2023-03-19T08:52:25.489Z,101395.69
2023-03-19T08:54:55.270Z,101389.80
2023-03-19T08:57:25.112Z,101402.31
2023-03-19T08:59:55.097Z,101398.54
2023-03-19T09:02:24.977Z,101402.53
2023-03-19T09:04:55.379Z,101402.63
2023-03-19T09:07:25.193Z,101403.17
2023-03-19T09:09:54.963Z,101408.95
2023-03-19T09:12:24.436Z,101406.36
2023-03-19T09:14:54.258Z,101406.00
2023-03-19T09:17:24.045Z,101400.83
2023-03-19T09:19:53.816Z,101403.52
2023-03-19T09:22:23.298Z,101409.58
2023-03-19T09:24:53.226Z,101407.28
2023-03-19T09:27:23.464Z,101398.06
2023-03-19T09:29:53.266Z,101401.83
2023-03-19T09:32:23.052Z,101407.14
2023-03-19T09:34:53.185Z,101417.02
2023-03-19T09:37:23.022Z,101400.59
2023-03-19T09:39:52.862Z,101400.59
2023-03-19T09:42:44.736Z,101418.00
2023-03-19T09:45:18.057Z,101420.06
2023-03-19T09:47:51.469Z,101423.74
2023-03-19T09:50:24.291Z,101430.78
2023-03-19T09:53:18.254Z,101434.08
2023-03-19T09:55:51.411Z,101438.14
2023-03-19T09:58:24.087Z,101438.14
2023-03-19T10:00:55.408Z,101449.27
2023-03-19T10:03:50.403Z,101450.31
2023-03-19T10:06:33.347Z,101449.53
2023-03-19T10:09:22.451Z,101453.43
2023-03-19T10:12:07.347Z,101458.53
2023-03-19T10:14:45.896Z,101457.14
2023-03-19T10:17:27.386Z,101453.09
2023-03-19T10:20:09.491Z,101449.67
2023-03-19T10:22:44.755Z,101448.57
2023-03-19T10:25:23.658Z,101452.39
2023-03-19T10:27:56.143Z,101450.77
2023-03-19T10:30:26.654Z,101453.20
2023-03-19T10:33:05.022Z,101452.83
2023-03-19T10:35:45.927Z,101454.80
2023-03-19T10:38:24.879Z,101456.64
2023-03-19T10:41:30.399Z,101453.61
2023-03-19T10:44:03.400Z,101455.59
2023-03-19T10:46:41.152Z,101456.05
2023-03-19T10:49:13.508Z,101455.56
2023-03-19T10:51:47.543Z,101456.81
2023-03-19T10:54:23.007Z,101462.59
2023-03-19T10:56:54.887Z,101460.07
2023-03-19T10:59:33.386Z,101463.70
2023-03-19T11:02:31.036Z,101448.19
2023-03-19T11:05:18.294Z,101448.19
2023-03-19T11:07:53.291Z,101471.98
2023-03-19T11:10:25.275Z,101468.23
2023-03-19T11:13:03.624Z,101464.09
2023-03-19T11:15:38.827Z,101472.45
2023-03-19T11:18:19.818Z,101480.60
2023-03-19T11:21:02.251Z,101481.98
2023-03-19T11:23:33.933Z,101480.66
2023-03-19T11:26:05.117Z,101478.82
2023-03-19T11:28:37.767Z,101481.09
2023-03-19T11:31:29.004Z,101480.84
2023-03-19T11:34:27.249Z,101491.73
2023-03-19T11:37:05.725Z,101487.69
2023-03-19T11:39:38.577Z,101494.61
2023-03-19T11:42:40.991Z,101494.95
2023-03-19T11:45:30.714Z,101501.87
2023-03-19T11:48:31.881Z,101498.30
2023-03-19T11:51:07.211Z,101502.31
2023-03-19T11:53:51.852Z,101507.70
2023-03-19T11:56:39.588Z,101504.33
2023-03-19T11:59:37.849Z,101508.39
2023-03-19T12:02:28.127Z,101503.75
2023-03-19T12:05:17.531Z,101504.97
2023-03-19T12:07:52.677Z,101504.32
2023-03-19T12:10:50.905Z,101505.11
2023-03-19T12:13:32.389Z,101504.69
2023-03-19T12:16:14.023Z,101502.29
2023-03-19T12:19:10.926Z,101502.02
2023-03-19T12:21:46.500Z,101502.41
2023-03-19T12:24:37.951Z,101485.53
2023-03-19T12:27:42.834Z,101485.53
2023-03-19T12:30:21.626Z,101498.88
2023-03-19T12:33:11.210Z,101493.52
2023-03-19T12:35:43.293Z,101480.95
2023-03-19T12:38:34.229Z,101488.70
2023-03-19T12:41:11.064Z,101492.97
2023-03-19T12:43:43.967Z,101490.98
2023-03-19T12:46:17.595Z,101481.64
2023-03-19T12:48:53.574Z,101490.33
2023-03-19T12:51:26.813Z,101493.80
2023-03-19T12:54:07.961Z,101489.22
2023-03-19T12:56:46.311Z,101490.35
2023-03-19T12:59:20.098Z,101498.19
2023-03-19T13:01:52.969Z,101497.59
2023-03-19T13:04:28.686Z,101497.05
2023-03-19T13:07:01.625Z,101501.42
2023-03-19T13:09:46.592Z,101507.38
2023-03-19T13:12:27.652Z,101515.37
2023-03-19T13:15:18.558Z,101491.25
2023-03-19T13:18:03.568Z,101491.25
2023-03-19T13:20:41.917Z,101498.00
2023-03-19T13:23:14.891Z,101511.00
2023-03-19T13:25:50.778Z,101511.02
2023-03-19T13:28:24.374Z,101508.25
2023-03-19T13:31:03.055Z,101507.45
2023-03-19T13:33:35.229Z,101488.14
2023-03-19T13:36:09.006Z,101488.14
2023-03-19T13:38:47.176Z,101506.61
2023-03-19T13:41:39.639Z,101512.59
2023-03-19T13:44:27.610Z,101511.95
2023-03-19T13:49:36.626Z,101518.16
2023-03-19T13:52:16.910Z,101513.36
2023-03-19T13:54:47.557Z,101513.36
2023-03-19T13:57:20.568Z,101516.54
2023-03-19T13:59:51.833Z,101516.14
2023-03-19T14:02:27.320Z,101520.02
2023-03-19T14:05:12.221Z,101519.05
2023-03-19T14:07:44.916Z,101521.95
2023-03-19T14:10:18.352Z,101520.31
2023-03-19T14:12:50.222Z,101529.09
2023-03-19T14:15:27.859Z,101509.41
2023-03-19T14:18:00.534Z,101509.41
2023-03-19T14:20:40.747Z,101529.58
2023-03-19T14:23:13.630Z,101528.27
2023-03-19T14:26:07.841Z,101526.92
2023-03-19T14:28:59.395Z,101524.77
2023-03-19T14:31:44.329Z,101516.89
2023-03-19T14:34:16.855Z,101519.00
2023-03-19T14:36:58.230Z,101517.67
2023-03-19T14:39:42.885Z,101499.84
2023-03-19T14:42:34.115Z,101499.84
2023-03-19T14:45:15.913Z,101520.64
2023-03-19T14:48:03.126Z,101523.58
2023-03-19T14:50:41.093Z,101525.55
2023-03-19T14:53:18.769Z,101531.03
2023-03-19T14:55:53.761Z,101540.52
2023-03-19T14:58:24.301Z,101545.70
2023-03-19T15:00:55.888Z,101546.50
2023-03-19T15:03:34.265Z,101551.56
2023-03-19T15:08:49.590Z,101550.83
2023-03-19T15:11:37.311Z,101556.88
2023-03-19T15:14:40.762Z,101555.73
2023-03-19T15:17:16.453Z,101555.40
2023-03-19T15:19:46.824Z,101545.86
2023-03-19T15:22:19.142Z,101549.83
2023-03-19T15:24:49.875Z,101552.70
2023-03-19T15:27:25.576Z,101550.38
2023-03-19T15:30:03.986Z,101547.62
2023-03-19T15:33:07.773Z,101549.61
2023-03-19T15:35:10.415Z,101546.91
2023-03-19T15:37:43.303Z,101544.77
2023-03-19T15:40:16.243Z,101536.38
2023-03-19T15:42:49.055Z,101533.38
2023-03-19T15:45:22.174Z,101532.78
2023-03-19T15:47:55.150Z,101536.45
2023-03-19T15:50:28.209Z,101550.08
2023-03-19T15:53:01.338Z,101552.55
2023-03-19T15:55:31.345Z,101564.48
2023-03-19T15:58:06.981Z,101562.04
2023-03-19T16:00:42.202Z,101570.71
2023-03-19T16:03:17.969Z,101569.54
2023-03-19T16:05:52.747Z,101574.08
2023-03-19T16:08:27.851Z,101579.32
2023-03-19T16:11:16.571Z,101578.74
2023-03-19T16:13:55.390Z,101581.88
2023-03-19T16:16:26.246Z,101589.52
2023-03-19T16:18:58.020Z,101596.89
2023-03-19T16:21:44.512Z,101596.89
2023-03-19T16:24:36.954Z,101600.85
2023-03-19T16:27:09.809Z,101605.59
2023-03-19T16:29:45.624Z,101606.52
2023-03-19T16:32:18.172Z,101606.52
2023-03-19T16:34:53.333Z,101616.77
2023-03-19T16:37:35.002Z,101625.09
2023-03-19T16:40:21.602Z,101628.58
2023-03-19T16:42:54.056Z,101625.85
2023-03-19T16:45:29.694Z,101628.75
2023-03-19T16:48:03.601Z,101627.67
2023-03-19T16:50:41.327Z,101625.24
2023-03-19T16:53:29.192Z,101628.11
2023-03-19T16:56:03.311Z,101639.33
2023-03-19T16:58:37.855Z,101650.70
2023-03-19T17:01:12.916Z,101650.84
2023-03-19T17:03:43.145Z,101643.31
2023-03-19T17:06:15.771Z,101650.23
2023-03-19T17:08:46.060Z,101654.13
2023-03-19T17:11:18.842Z,101660.43
2023-03-19T17:13:48.673Z,101664.09
2023-03-19T17:16:18.733Z,101660.45
2023-03-19T17:18:49.326Z,101661.89
2023-03-19T17:21:25.083Z,101656.55
2023-03-19T17:23:55.949Z,101668.95
2023-03-19T17:26:27.815Z,101672.92
2023-03-19T17:28:58.331Z,101684.27
2023-03-19T17:31:33.817Z,101691.09
2023-03-19T17:34:09.397Z,101694.99
2023-03-19T17:36:39.193Z,101703.45
2023-03-19T17:39:10.889Z,101695.54
2023-03-19T17:41:41.397Z,101698.13
2023-03-19T17:44:11.291Z,101712.64
2023-03-19T17:46:49.941Z,101717.56
2023-03-19T17:49:27.237Z,101731.44
2023-03-19T17:51:57.992Z,101737.19
2023-03-19T17:54:27.988Z,101746.26
2023-03-19T17:56:57.763Z,101743.66
2023-03-19T17:59:27.555Z,101745.80
2023-03-19T18:01:57.309Z,101752.55
2023-03-19T18:04:27.022Z,101758.98
2023-03-19T18:06:57.543Z,101767.58
2023-03-19T18:09:28.693Z,101769.99
2023-03-19T18:11:58.556Z,101771.51
2023-03-19T18:14:28.140Z,101771.68
2023-03-19T18:16:58.057Z,101778.07
2023-03-19T18:19:33.839Z,101782.39
2023-03-19T18:22:05.124Z,101786.13
2023-03-19T18:24:34.900Z,101780.11
2023-03-19T18:27:04.729Z,101787.36
2023-03-19T18:29:34.269Z,101789.88
2023-03-19T18:32:15.567Z,101798.19
2023-03-19T18:34:45.470Z,101799.73
2023-03-19T18:37:19.552Z,101816.21
2023-03-19T18:39:50.021Z,101815.89
2023-03-19T18:42:19.495Z,101821.37
2023-03-19T18:44:49.351Z,101829.93
2023-03-19T18:47:19.160Z,101830.45
2023-03-19T18:49:49.298Z,101838.65
2023-03-19T18:52:19.745Z,101833.50
2023-03-19T18:54:49.610Z,101837.69
2023-03-19T18:57:19.383Z,101848.69
2023-03-19T18:59:49.214Z,101848.95
2023-03-19T19:02:25.147Z,101860.28
2023-03-19T19:04:54.888Z,101861.97
2023-03-19T19:07:24.992Z,101873.98
2023-03-19T19:09:54.767Z,101875.80
2023-03-19T19:12:26.031Z,101872.64
2023-03-19T19:14:58.718Z,101876.11
2023-03-19T19:17:29.587Z,101882.59
2023-03-19T19:19:59.396Z,101886.02
2023-03-19T19:22:29.781Z,101889.77
2023-03-19T19:24:59.647Z,101893.61
2023-03-19T19:27:30.142Z,101894.70
2023-03-19T19:30:01.353Z,101896.28
2023-03-19T19:32:32.243Z,101896.28
2023-03-19T19:35:02.149Z,101892.58
2023-03-19T19:37:31.989Z,101888.92
2023-03-19T19:40:01.785Z,101890.37
2023-03-19T19:42:31.600Z,101895.83
2023-03-19T19:45:03.427Z,101904.30
2023-03-19T19:47:35.680Z,101902.19
2023-03-19T19:50:06.618Z,101902.19
2023-03-19T19:52:36.690Z,101909.95
2023-03-19T19:55:08.423Z,101911.25
2023-03-19T19:57:40.874Z,101911.70
2023-03-19T20:00:18.546Z,101918.79
2023-03-19T20:02:47.433Z,101921.22
2023-03-19T20:05:23.176Z,101922.18
2023-03-19T20:07:55.043Z,101927.34
2023-03-19T20:10:27.940Z,101925.55
2023-03-19T20:13:02.075Z,101917.83
2023-03-19T20:15:36.852Z,101920.76
2023-03-19T20:18:10.751Z,101914.58
2023-03-19T20:20:40.563Z,101916.61
2023-03-19T20:23:12.038Z,101915.25
2023-03-19T20:25:42.118Z,101913.55
2023-03-19T20:28:15.169Z,101913.55
2023-03-19T20:30:46.027Z,101918.86
2023-03-19T20:33:17.504Z,101920.30
2023-03-19T20:35:48.190Z,101921.77
2023-03-19T20:38:18.209Z,101924.50
2023-03-19T20:40:56.806Z,101932.89
2023-03-19T20:43:32.349Z,101929.63
2023-03-19T20:46:04.782Z,101930.25
2023-03-19T20:48:35.682Z,101934.75
2023-03-19T20:51:06.022Z,101935.70
2023-03-19T20:53:35.765Z,101935.05
2023-03-19T20:56:10.326Z,101943.33
2023-03-19T20:58:40.300Z,101943.56
2023-03-19T21:01:11.730Z,101942.16
2023-03-19T21:03:41.913Z,101944.14
2023-03-19T21:06:18.595Z,101944.03
2023-03-19T21:08:51.054Z,101942.86
2023-03-19T21:11:23.723Z,101945.55
2023-03-19T21:13:54.688Z,101947.98
2023-03-19T21:16:29.696Z,101947.58
2023-03-19T21:19:00.054Z,101943.89
2023-03-19T21:21:33.300Z,101945.59
2023-03-19T21:24:08.766Z,101947.83
2023-03-19T21:26:40.287Z,101954.36
2023-03-19T21:29:13.110Z,101951.93
2023-03-19T21:31:43.231Z,101956.58
2023-03-19T21:34:15.249Z,101953.55
2023-03-19T21:36:45.677Z,101952.58
2023-03-19T21:39:15.247Z,101952.58
2023-03-19T21:41:46.943Z,101957.16
2023-03-19T21:44:20.902Z,101955.16
2023-03-19T21:46:51.400Z,101954.91
2023-03-19T21:49:21.835Z,101952.77
2023-03-19T21:51:51.572Z,101952.77
2023-03-19T21:54:21.157Z,101957.83
2023-03-19T21:56:51.444Z,101959.97
2023-03-19T21:59:24.609Z,101961.73
2023-03-19T22:01:54.392Z,101957.70
2023-03-19T22:04:24.267Z,101958.38
2023-03-19T22:06:54.386Z,101954.34
2023-03-19T22:09:24.201Z,101963.55
2023-03-19T22:11:53.998Z,101960.61
2023-03-19T22:14:28.446Z,101968.16
2023-03-19T22:16:58.548Z,101971.61
2023-03-19T22:19:29.225Z,101974.49
2023-03-19T22:21:58.934Z,101968.08
2023-03-19T22:24:28.842Z,101975.45
2023-03-19T22:26:59.234Z,101973.95
2023-03-19T22:29:29.404Z,101976.61
2023-03-19T22:31:59.757Z,101980.25
2023-03-19T22:34:29.778Z,101982.81
2023-03-19T22:37:00.655Z,101976.37
2023-03-19T22:39:30.443Z,101979.23
2023-03-19T22:42:00.374Z,101984.88
2023-03-19T22:44:32.114Z,101987.25
2023-03-19T22:47:03.358Z,101988.78
2023-03-19T22:49:33.390Z,101989.15
2023-03-19T22:52:03.211Z,101985.89
2023-03-19T22:54:32.960Z,101987.05
2023-03-19T22:57:02.742Z,101988.44
2023-03-19T22:59:32.661Z,101995.40
2023-03-19T23:02:02.590Z,101999.37
2023-03-19T23:04:33.645Z,101996.10
2023-03-19T23:07:03.434Z,101999.82
2023-03-19T23:09:38.876Z,102007.34
2023-03-19T23:12:10.292Z,102007.84
2023-03-19T23:14:40.060Z,102005.45
2023-03-19T23:17:13.776Z,102013.45
2023-03-19T23:19:43.635Z,102017.55
2023-03-19T23:22:16.821Z,102023.73
2023-03-19T23:24:46.755Z,102013.12
2023-03-19T23:27:25.946Z,102020.80
2023-03-19T23:29:57.401Z,102016.52
2023-03-19T23:32:27.084Z,102016.52
2023-03-19T23:35:01.444Z,102024.52
2023-03-19T23:37:28.809Z,102026.42
2023-03-19T23:39:58.851Z,102029.23
2023-03-19T23:42:31.347Z,102038.17
2023-03-19T23:45:05.008Z,102038.17
2023-03-19T23:47:36.323Z,102044.30
2023-03-19T23:50:10.045Z,102046.38
2023-03-19T23:52:39.913Z,102036.68
2023-03-19T23:55:10.460Z,102039.20
2023-03-19T23:57:40.602Z,102038.01
